This is the latest recevied weather packets stored in our database for station/object WC4PEM. If no packets are shown the sender has not sent any weather packets the latest 10 day(s).
| Time | Temp. | Humidity | Pressure | Rain* | Wind** | Luminosity | Snow |
|---|---|---|---|---|---|---|---|
| 1777153193 | 24.44° C | 67% | 1009.7 hPa | 0 mm | - | - | - |
| 1777152986 | 24.44° C | 67% | 1009.7 hPa | 0 mm | - | - | - |
| 1777152893 | 24.44° C | 67% | 1009.7 hPa | 0 mm | - | - | - |
| 1777152594 | 24.44° C | 70% | 1009.7 hPa | 0 mm | - | - | - |
| 1777152450 | 25° C | 71% | 1009.7 hPa | 0 mm | - | - | - |
| 1777152294 | 25° C | 71% | 1009.7 hPa | 0 mm | - | - | - |
| 1777151994 | 25.56° C | 70% | 1009.5 hPa | 0 mm | - | - | - |
| 1777151694 | 25.56° C | 69% | 1009.6 hPa | 0 mm | - | - | - |
| 1777151393 | 26.11° C | 68% | 1009.4 hPa | 0 mm | - | - | - |
| 1777151094 | 27.22° C | 67% | 1009.5 hPa | 0 mm | - | - | - |
| 1777150794 | 27.22° C | 66% | 1009.5 hPa | 0 mm | - | - | - |
| 1777150493 | 27.22° C | 66% | 1009.4 hPa | 0 mm | - | - | - |
| 1777150194 | 26.67° C | 65% | 1009.4 hPa | 0 mm | - | - | - |
| 1777149894 | 26.67° C | 63% | 1009.2 hPa | 0 mm | - | - | - |
| 1777149594 | 27.22° C | 61% | 1009.2 hPa | 0 mm | - | - | - |
| 1777149294 | 27.78° C | 60% | 1009 hPa | 0 mm | - | - | - |
| 1777148994 | 28.89° C | 55% | 1008.9 hPa | 0 mm | - | - | - |
| 1777148694 | 29.44° C | 50% | 1008.9 hPa | 0 mm | - | - | - |
| 1777148557 | 31.67° C | 44% | 1008.9 hPa | 0 mm | - | - | - |
| 1777148394 | 30° C | 51% | 1009 hPa | 0 mm | - | - | - |
| 1777148094 | 30.56° C | 48% | 1009 hPa | 0 mm | - | - | - |
| 1777147794 | 31.11° C | 45% | 1008.8 hPa | 0 mm | - | - | - |
| 1777147494 | 31.67° C | 44% | 1008.9 hPa | 0 mm | - | - | - |
| 1777147194 | 31.67° C | 44% | 1008.9 hPa | 0 mm | - | - | - |
| 1777146894 | 31.67° C | 44% | 1009 hPa | 0 mm | - | - | - |
* Rain latest hour (hover to see other rain measurements)
** Current wind speed in m/s (hover to see current wind gust speed)